sensor_id;sensor_type;location;lat;lon;timestamp;P1;durP1;ratioP1;P2;durP2;ratioP2
16975;SDS011;8604;48.148;-1.786;2022-07-22T00:00:48;8.80;;;4.17;;
16975;SDS011;8604;48.148;-1.786;2022-07-22T00:03:16;8.40;;;4.20;;
16975;SDS011;8604;48.148;-1.786;2022-07-22T00:05:45;9.77;;;4.40;;
16975;SDS011;8604;48.148;-1.786;2022-07-22T00:08:26;7.93;;;4.33;;
16975;SDS011;8604;48.148;-1.786;2022-07-22T00:10:56;9.50;;;4.67;;
16975;SDS011;8604;48.148;-1.786;2022-07-22T00:13:24;9.03;;;4.23;;
16975;SDS011;8604;48.148;-1.786;2022-07-22T00:15:53;6.33;;;3.80;;
16975;SDS011;8604;48.148;-1.786;2022-07-22T00:18:21;7.37;;;4.40;;
16975;SDS011;8604;48.148;-1.786;2022-07-22T00:20:50;8.80;;;5.17;;
16975;SDS011;8604;48.148;-1.786;2022-07-22T00:23:19;7.80;;;5.20;;
16975;SDS011;8604;48.148;-1.786;2022-07-22T00:25:47;7.33;;;4.70;;
16975;SDS011;8604;48.148;-1.786;2022-07-22T00:28:17;7.77;;;4.50;;
16975;SDS011;8604;48.148;-1.786;2022-07-22T00:30:45;7.37;;;4.90;;
16975;SDS011;8604;48.148;-1.786;2022-07-22T00:33:20;7.47;;;5.07;;
16975;SDS011;8604;48.148;-1.786;2022-07-22T00:35:49;8.00;;;5.00;;
16975;SDS011;8604;48.148;-1.786;2022-07-22T00:38:18;7.70;;;4.90;;
16975;SDS011;8604;48.148;-1.786;2022-07-22T00:40:46;10.60;;;5.53;;
16975;SDS011;8604;48.148;-1.786;2022-07-22T00:43:16;10.13;;;5.43;;
16975;SDS011;8604;48.148;-1.786;2022-07-22T00:45:45;6.73;;;4.60;;
16975;SDS011;8604;48.148;-1.786;2022-07-22T00:48:13;9.07;;;5.60;;
16975;SDS011;8604;48.148;-1.786;2022-07-22T00:50:41;8.77;;;4.90;;
16975;SDS011;8604;48.148;-1.786;2022-07-22T00:53:10;9.27;;;5.47;;
16975;SDS011;8604;48.148;-1.786;2022-07-22T00:55:39;10.07;;;4.73;;
16975;SDS011;8604;48.148;-1.786;2022-07-22T00:58:09;9.13;;;5.40;;
16975;SDS011;8604;48.148;-1.786;2022-07-22T01:00:40;9.50;;;6.30;;
16975;SDS011;8604;48.148;-1.786;2022-07-22T01:03:08;8.23;;;4.70;;
16975;SDS011;8604;48.148;-1.786;2022-07-22T01:05:36;10.03;;;6.53;;
16975;SDS011;8604;48.148;-1.786;2022-07-22T01:11:06;10.90;;;6.33;;
16975;SDS011;8604;48.148;-1.786;2022-07-22T01:13:34;8.67;;;5.47;;
16975;SDS011;8604;48.148;-1.786;2022-07-22T01:16:05;7.60;;;5.67;;
16975;SDS011;8604;48.148;-1.786;2022-07-22T01:18:35;9.03;;;5.70;;
16975;SDS011;8604;48.148;-1.786;2022-07-22T01:21:06;8.23;;;5.53;;
16975;SDS011;8604;48.148;-1.786;2022-07-22T01:23:36;7.70;;;5.60;;
16975;SDS011;8604;48.148;-1.786;2022-07-22T01:26:06;8.23;;;5.47;;
16975;SDS011;8604;48.148;-1.786;2022-07-22T01:28:36;9.57;;;5.90;;
16975;SDS011;8604;48.148;-1.786;2022-07-22T01:31:05;8.27;;;6.03;;
16975;SDS011;8604;48.148;-1.786;2022-07-22T01:33:34;8.87;;;5.60;;
16975;SDS011;8604;48.148;-1.786;2022-07-22T01:36:03;8.90;;;6.47;;
16975;SDS011;8604;48.148;-1.786;2022-07-22T01:38:34;8.23;;;5.47;;
16975;SDS011;8604;48.148;-1.786;2022-07-22T01:41:03;9.03;;;6.07;;
16975;SDS011;8604;48.148;-1.786;2022-07-22T01:43:32;8.40;;;5.90;;
16975;SDS011;8604;48.148;-1.786;2022-07-22T01:46:00;9.37;;;6.27;;
16975;SDS011;8604;48.148;-1.786;2022-07-22T01:48:31;10.83;;;6.83;;
16975;SDS011;8604;48.148;-1.786;2022-07-22T01:51:00;10.13;;;6.57;;
16975;SDS011;8604;48.148;-1.786;2022-07-22T01:53:30;8.97;;;6.00;;
16975;SDS011;8604;48.148;-1.786;2022-07-22T01:55:59;9.80;;;6.30;;
16975;SDS011;8604;48.148;-1.786;2022-07-22T01:58:29;10.50;;;7.00;;
16975;SDS011;8604;48.148;-1.786;2022-07-22T02:01:06;11.83;;;7.07;;
16975;SDS011;8604;48.148;-1.786;2022-07-22T02:03:35;11.23;;;7.30;;
16975;SDS011;8604;48.148;-1.786;2022-07-22T02:06:06;11.27;;;7.73;;
16975;SDS011;8604;48.148;-1.786;2022-07-22T02:11:43;12.20;;;8.07;;
16975;SDS011;8604;48.148;-1.786;2022-07-22T02:14:14;12.07;;;8.57;;
16975;SDS011;8604;48.148;-1.786;2022-07-22T02:16:43;14.03;;;9.03;;
16975;SDS011;8604;48.148;-1.786;2022-07-22T02:19:11;13.63;;;8.60;;
16975;SDS011;8604;48.148;-1.786;2022-07-22T02:21:40;12.20;;;9.30;;
16975;SDS011;8604;48.148;-1.786;2022-07-22T02:24:09;15.47;;;10.30;;
16975;SDS011;8604;48.148;-1.786;2022-07-22T02:26:38;15.03;;;9.67;;
16975;SDS011;8604;48.148;-1.786;2022-07-22T02:29:10;14.13;;;9.63;;
16975;SDS011;8604;48.148;-1.786;2022-07-22T02:31:38;13.07;;;9.90;;
16975;SDS011;8604;48.148;-1.786;2022-07-22T02:34:07;14.93;;;10.57;;
16975;SDS011;8604;48.148;-1.786;2022-07-22T02:36:37;18.43;;;11.50;;
16975;SDS011;8604;48.148;-1.786;2022-07-22T02:39:06;14.90;;;10.70;;
16975;SDS011;8604;48.148;-1.786;2022-07-22T02:41:37;16.37;;;12.30;;
16975;SDS011;8604;48.148;-1.786;2022-07-22T02:44:06;14.93;;;11.07;;
16975;SDS011;8604;48.148;-1.786;2022-07-22T02:46:35;15.87;;;11.07;;
16975;SDS011;8604;48.148;-1.786;2022-07-22T02:49:11;16.87;;;11.37;;
16975;SDS011;8604;48.148;-1.786;2022-07-22T02:51:39;17.20;;;11.87;;
16975;SDS011;8604;48.148;-1.786;2022-07-22T02:54:08;14.53;;;11.30;;
16975;SDS011;8604;48.148;-1.786;2022-07-22T02:56:38;15.93;;;11.10;;
16975;SDS011;8604;48.148;-1.786;2022-07-22T02:59:06;18.50;;;12.80;;
16975;SDS011;8604;48.148;-1.786;2022-07-22T03:01:35;20.23;;;13.07;;
16975;SDS011;8604;48.148;-1.786;2022-07-22T03:04:03;17.27;;;11.63;;
16975;SDS011;8604;48.148;-1.786;2022-07-22T03:06:34;18.63;;;11.50;;
16975;SDS011;8604;48.148;-1.786;2022-07-22T03:09:10;18.80;;;12.50;;
16975;SDS011;8604;48.148;-1.786;2022-07-22T03:11:43;16.00;;;12.30;;
16975;SDS011;8604;48.148;-1.786;2022-07-22T03:14:12;16.83;;;11.40;;
16975;SDS011;8604;48.148;-1.786;2022-07-22T03:16:40;16.27;;;13.27;;
16975;SDS011;8604;48.148;-1.786;2022-07-22T03:19:08;14.83;;;10.73;;
16975;SDS011;8604;48.148;-1.786;2022-07-22T03:21:37;18.07;;;11.73;;
16975;SDS011;8604;48.148;-1.786;2022-07-22T03:24:06;19.23;;;11.80;;
16975;SDS011;8604;48.148;-1.786;2022-07-22T03:26:35;18.23;;;12.90;;
16975;SDS011;8604;48.148;-1.786;2022-07-22T03:29:08;18.10;;;13.27;;
16975;SDS011;8604;48.148;-1.786;2022-07-22T03:31:36;17.77;;;12.50;;
16975;SDS011;8604;48.148;-1.786;2022-07-22T03:34:05;20.17;;;13.87;;
16975;SDS011;8604;48.148;-1.786;2022-07-22T03:36:37;18.70;;;12.77;;
16975;SDS011;8604;48.148;-1.786;2022-07-22T03:39:07;17.33;;;13.27;;
16975;SDS011;8604;48.148;-1.786;2022-07-22T03:41:36;17.20;;;13.53;;
16975;SDS011;8604;48.148;-1.786;2022-07-22T03:44:04;17.00;;;12.73;;
16975;SDS011;8604;48.148;-1.786;2022-07-22T03:46:34;20.20;;;14.40;;
16975;SDS011;8604;48.148;-1.786;2022-07-22T03:49:04;16.47;;;12.47;;
16975;SDS011;8604;48.148;-1.786;2022-07-22T03:51:32;16.17;;;12.23;;
16975;SDS011;8604;48.148;-1.786;2022-07-22T03:54:01;19.17;;;13.43;;
16975;SDS011;8604;48.148;-1.786;2022-07-22T03:56:30;16.00;;;11.63;;
16975;SDS011;8604;48.148;-1.786;2022-07-22T03:58:58;18.73;;;13.67;;
16975;SDS011;8604;48.148;-1.786;2022-07-22T04:01:27;19.53;;;13.60;;
16975;SDS011;8604;48.148;-1.786;2022-07-22T04:03:58;17.83;;;13.77;;
16975;SDS011;8604;48.148;-1.786;2022-07-22T04:06:37;21.17;;;13.80;;
16975;SDS011;8604;48.148;-1.786;2022-07-22T04:09:23;15.07;;;12.17;;
16975;SDS011;8604;48.148;-1.786;2022-07-22T04:11:57;15.63;;;11.53;;
16975;SDS011;8604;48.148;-1.786;2022-07-22T04:14:26;16.33;;;11.20;;
16975;SDS011;8604;48.148;-1.786;2022-07-22T04:16:57;17.73;;;12.47;;
16975;SDS011;8604;48.148;-1.786;2022-07-22T04:19:27;17.93;;;11.83;;
16975;SDS011;8604;48.148;-1.786;2022-07-22T04:21:58;17.67;;;12.23;;
16975;SDS011;8604;48.148;-1.786;2022-07-22T04:24:28;17.00;;;12.90;;
16975;SDS011;8604;48.148;-1.786;2022-07-22T04:26:57;18.57;;;12.67;;
16975;SDS011;8604;48.148;-1.786;2022-07-22T04:29:25;16.97;;;12.47;;
16975;SDS011;8604;48.148;-1.786;2022-07-22T04:31:54;20.00;;;14.50;;
16975;SDS011;8604;48.148;-1.786;2022-07-22T04:34:29;17.27;;;11.90;;
16975;SDS011;8604;48.148;-1.786;2022-07-22T04:36:59;18.97;;;13.73;;
16975;SDS011;8604;48.148;-1.786;2022-07-22T04:39:32;19.13;;;14.00;;
16975;SDS011;8604;48.148;-1.786;2022-07-22T04:42:04;18.20;;;13.10;;
16975;SDS011;8604;48.148;-1.786;2022-07-22T04:44:33;19.83;;;13.50;;
16975;SDS011;8604;48.148;-1.786;2022-07-22T04:47:01;20.17;;;13.93;;
16975;SDS011;8604;48.148;-1.786;2022-07-22T04:49:37;18.70;;;14.53;;
16975;SDS011;8604;48.148;-1.786;2022-07-22T04:52:07;19.00;;;13.20;;
16975;SDS011;8604;48.148;-1.786;2022-07-22T04:54:42;18.53;;;14.60;;
16975;SDS011;8604;48.148;-1.786;2022-07-22T04:57:12;22.67;;;14.97;;
16975;SDS011;8604;48.148;-1.786;2022-07-22T04:59:40;20.53;;;14.57;;
16975;SDS011;8604;48.148;-1.786;2022-07-22T05:02:09;21.43;;;14.77;;
16975;SDS011;8604;48.148;-1.786;2022-07-22T05:04:41;20.50;;;14.50;;
16975;SDS011;8604;48.148;-1.786;2022-07-22T05:07:09;18.77;;;14.37;;
16975;SDS011;8604;48.148;-1.786;2022-07-22T05:09:38;22.70;;;15.27;;
16975;SDS011;8604;48.148;-1.786;2022-07-22T05:12:09;20.10;;;14.47;;
16975;SDS011;8604;48.148;-1.786;2022-07-22T05:14:38;20.63;;;14.97;;
16975;SDS011;8604;48.148;-1.786;2022-07-22T05:17:08;20.37;;;14.60;;
16975;SDS011;8604;48.148;-1.786;2022-07-22T05:19:56;20.30;;;15.07;;
16975;SDS011;8604;48.148;-1.786;2022-07-22T05:22:25;17.67;;;13.50;;
16975;SDS011;8604;48.148;-1.786;2022-07-22T05:24:58;19.97;;;14.40;;
16975;SDS011;8604;48.148;-1.786;2022-07-22T05:27:27;20.70;;;13.67;;
16975;SDS011;8604;48.148;-1.786;2022-07-22T05:29:56;15.93;;;12.90;;
16975;SDS011;8604;48.148;-1.786;2022-07-22T05:32:24;18.47;;;12.70;;
16975;SDS011;8604;48.148;-1.786;2022-07-22T05:34:58;19.37;;;14.30;;
16975;SDS011;8604;48.148;-1.786;2022-07-22T05:37:27;17.30;;;12.53;;
16975;SDS011;8604;48.148;-1.786;2022-07-22T05:39:56;15.37;;;12.17;;
16975;SDS011;8604;48.148;-1.786;2022-07-22T05:42:24;18.30;;;12.60;;
16975;SDS011;8604;48.148;-1.786;2022-07-22T05:44:53;18.63;;;14.13;;
16975;SDS011;8604;48.148;-1.786;2022-07-22T05:47:21;15.90;;;11.37;;
16975;SDS011;8604;48.148;-1.786;2022-07-22T05:49:50;17.10;;;12.07;;
16975;SDS011;8604;48.148;-1.786;2022-07-22T05:52:20;16.63;;;12.17;;
16975;SDS011;8604;48.148;-1.786;2022-07-22T05:54:49;14.80;;;10.33;;
16975;SDS011;8604;48.148;-1.786;2022-07-22T05:57:17;15.77;;;11.77;;
16975;SDS011;8604;48.148;-1.786;2022-07-22T05:59:46;18.53;;;11.67;;
16975;SDS011;8604;48.148;-1.786;2022-07-22T06:02:23;15.87;;;10.60;;
16975;SDS011;8604;48.148;-1.786;2022-07-22T06:04:51;16.50;;;11.50;;
16975;SDS011;8604;48.148;-1.786;2022-07-22T06:07:23;15.13;;;10.17;;
16975;SDS011;8604;48.148;-1.786;2022-07-22T06:09:58;15.23;;;11.03;;
16975;SDS011;8604;48.148;-1.786;2022-07-22T06:12:29;15.40;;;11.00;;
16975;SDS011;8604;48.148;-1.786;2022-07-22T06:14:58;13.70;;;10.47;;
16975;SDS011;8604;48.148;-1.786;2022-07-22T06:17:26;15.73;;;11.27;;
16975;SDS011;8604;48.148;-1.786;2022-07-22T06:19:55;16.77;;;10.63;;
16975;SDS011;8604;48.148;-1.786;2022-07-22T06:22:33;16.70;;;10.57;;
16975;SDS011;8604;48.148;-1.786;2022-07-22T06:25:02;12.13;;;9.47;;
16975;SDS011;8604;48.148;-1.786;2022-07-22T06:27:51;12.73;;;9.93;;
16975;SDS011;8604;48.148;-1.786;2022-07-22T06:30:19;14.47;;;10.43;;
16975;SDS011;8604;48.148;-1.786;2022-07-22T06:32:48;16.97;;;10.93;;
16975;SDS011;8604;48.148;-1.786;2022-07-22T06:35:22;12.43;;;9.50;;
16975;SDS011;8604;48.148;-1.786;2022-07-22T06:37:53;13.33;;;9.53;;
16975;SDS011;8604;48.148;-1.786;2022-07-22T06:40:45;17.93;;;11.57;;
16975;SDS011;8604;48.148;-1.786;2022-07-22T06:43:41;14.67;;;10.97;;
16975;SDS011;8604;48.148;-1.786;2022-07-22T06:46:31;14.87;;;10.30;;
16975;SDS011;8604;48.148;-1.786;2022-07-22T06:49:01;14.77;;;10.70;;
16975;SDS011;8604;48.148;-1.786;2022-07-22T06:51:32;16.50;;;10.60;;
16975;SDS011;8604;48.148;-1.786;2022-07-22T06:54:02;14.03;;;10.57;;
16975;SDS011;8604;48.148;-1.786;2022-07-22T06:56:31;14.40;;;10.77;;
16975;SDS011;8604;48.148;-1.786;2022-07-22T06:58:59;14.87;;;9.70;;
16975;SDS011;8604;48.148;-1.786;2022-07-22T07:01:28;13.63;;;10.03;;
16975;SDS011;8604;48.148;-1.786;2022-07-22T07:03:59;15.47;;;10.33;;
16975;SDS011;8604;48.148;-1.786;2022-07-22T07:06:28;13.53;;;9.83;;
16975;SDS011;8604;48.148;-1.786;2022-07-22T07:09:11;15.13;;;10.70;;
16975;SDS011;8604;48.148;-1.786;2022-07-22T07:11:44;16.20;;;9.80;;
16975;SDS011;8604;48.148;-1.786;2022-07-22T07:14:27;14.77;;;11.30;;
16975;SDS011;8604;48.148;-1.786;2022-07-22T07:16:56;17.57;;;11.27;;
16975;SDS011;8604;48.148;-1.786;2022-07-22T07:19:25;15.70;;;10.30;;
16975;SDS011;8604;48.148;-1.786;2022-07-22T07:21:56;14.33;;;10.90;;
16975;SDS011;8604;48.148;-1.786;2022-07-22T07:24:26;15.23;;;11.43;;
16975;SDS011;8604;48.148;-1.786;2022-07-22T07:26:54;13.93;;;11.40;;
16975;SDS011;8604;48.148;-1.786;2022-07-22T07:29:23;14.57;;;11.30;;
16975;SDS011;8604;48.148;-1.786;2022-07-22T07:31:52;15.70;;;10.83;;
16975;SDS011;8604;48.148;-1.786;2022-07-22T07:34:21;14.60;;;10.60;;
16975;SDS011;8604;48.148;-1.786;2022-07-22T07:36:49;16.93;;;13.57;;
16975;SDS011;8604;48.148;-1.786;2022-07-22T07:39:18;17.50;;;13.10;;
16975;SDS011;8604;48.148;-1.786;2022-07-22T07:41:48;15.43;;;12.10;;
16975;SDS011;8604;48.148;-1.786;2022-07-22T07:44:22;20.77;;;14.10;;
16975;SDS011;8604;48.148;-1.786;2022-07-22T07:46:50;17.47;;;14.10;;
16975;SDS011;8604;48.148;-1.786;2022-07-22T07:49:19;17.50;;;13.87;;
16975;SDS011;8604;48.148;-1.786;2022-07-22T07:51:48;17.23;;;13.60;;
16975;SDS011;8604;48.148;-1.786;2022-07-22T07:54:17;18.93;;;14.27;;
16975;SDS011;8604;48.148;-1.786;2022-07-22T07:56:49;17.80;;;14.57;;
16975;SDS011;8604;48.148;-1.786;2022-07-22T07:59:18;17.53;;;13.63;;
16975;SDS011;8604;48.148;-1.786;2022-07-22T08:01:56;19.27;;;13.83;;
16975;SDS011;8604;48.148;-1.786;2022-07-22T08:04:27;18.60;;;13.33;;
16975;SDS011;8604;48.148;-1.786;2022-07-22T08:07:05;16.67;;;13.00;;
16975;SDS011;8604;48.148;-1.786;2022-07-22T08:09:36;17.60;;;13.03;;
16975;SDS011;8604;48.148;-1.786;2022-07-22T08:12:14;18.27;;;12.70;;
16975;SDS011;8604;48.148;-1.786;2022-07-22T08:15:15;14.53;;;11.57;;
16975;SDS011;8604;48.148;-1.786;2022-07-22T08:17:46;17.83;;;12.93;;
16975;SDS011;8604;48.148;-1.786;2022-07-22T08:20:15;20.97;;;14.90;;
16975;SDS011;8604;48.148;-1.786;2022-07-22T08:22:48;16.63;;;12.57;;
16975;SDS011;8604;48.148;-1.786;2022-07-22T08:25:17;18.63;;;13.33;;
16975;SDS011;8604;48.148;-1.786;2022-07-22T08:27:48;18.07;;;13.33;;
16975;SDS011;8604;48.148;-1.786;2022-07-22T08:30:16;15.87;;;12.80;;
16975;SDS011;8604;48.148;-1.786;2022-07-22T08:32:46;19.47;;;12.77;;
16975;SDS011;8604;48.148;-1.786;2022-07-22T08:35:15;16.83;;;12.03;;
16975;SDS011;8604;48.148;-1.786;2022-07-22T08:37:45;16.57;;;12.20;;
16975;SDS011;8604;48.148;-1.786;2022-07-22T08:40:15;15.27;;;11.23;;
16975;SDS011;8604;48.148;-1.786;2022-07-22T08:42:47;17.27;;;11.37;;
16975;SDS011;8604;48.148;-1.786;2022-07-22T08:45:17;19.23;;;12.97;;
16975;SDS011;8604;48.148;-1.786;2022-07-22T08:47:48;19.70;;;12.27;;
16975;SDS011;8604;48.148;-1.786;2022-07-22T08:50:33;13.20;;;10.33;;
16975;SDS011;8604;48.148;-1.786;2022-07-22T08:53:20;21.40;;;12.50;;
16975;SDS011;8604;48.148;-1.786;2022-07-22T08:55:51;22.13;;;12.23;;
16975;SDS011;8604;48.148;-1.786;2022-07-22T08:58:22;25.10;;;12.23;;
16975;SDS011;8604;48.148;-1.786;2022-07-22T09:01:05;21.63;;;12.50;;
16975;SDS011;8604;48.148;-1.786;2022-07-22T09:03:45;19.33;;;12.73;;
16975;SDS011;8604;48.148;-1.786;2022-07-22T09:06:17;17.77;;;11.57;;
16975;SDS011;8604;48.148;-1.786;2022-07-22T09:08:50;19.33;;;13.23;;
16975;SDS011;8604;48.148;-1.786;2022-07-22T09:11:49;18.13;;;13.17;;
16975;SDS011;8604;48.148;-1.786;2022-07-22T09:15:02;22.47;;;13.93;;
16975;SDS011;8604;48.148;-1.786;2022-07-22T09:17:40;22.07;;;16.27;;
16975;SDS011;8604;48.148;-1.786;2022-07-22T09:20:34;19.80;;;15.53;;
16975;SDS011;8604;48.148;-1.786;2022-07-22T09:23:22;22.03;;;14.97;;
16975;SDS011;8604;48.148;-1.786;2022-07-22T09:25:53;24.93;;;15.17;;
16975;SDS011;8604;48.148;-1.786;2022-07-22T09:28:53;23.63;;;16.23;;
16975;SDS011;8604;48.148;-1.786;2022-07-22T09:31:29;21.53;;;15.73;;
16975;SDS011;8604;48.148;-1.786;2022-07-22T09:34:25;21.47;;;16.10;;
16975;SDS011;8604;48.148;-1.786;2022-07-22T09:36:55;19.43;;;15.67;;
16975;SDS011;8604;48.148;-1.786;2022-07-22T09:39:27;20.27;;;15.67;;
16975;SDS011;8604;48.148;-1.786;2022-07-22T09:41:58;21.33;;;17.53;;
16975;SDS011;8604;48.148;-1.786;2022-07-22T09:44:27;21.40;;;17.10;;
16975;SDS011;8604;48.148;-1.786;2022-07-22T09:47:01;18.27;;;13.90;;
16975;SDS011;8604;48.148;-1.786;2022-07-22T09:50:13;21.83;;;17.17;;
16975;SDS011;8604;48.148;-1.786;2022-07-22T09:53:05;22.10;;;17.07;;
16975;SDS011;8604;48.148;-1.786;2022-07-22T09:55:39;21.23;;;17.57;;
16975;SDS011;8604;48.148;-1.786;2022-07-22T09:58:08;22.03;;;17.43;;
16975;SDS011;8604;48.148;-1.786;2022-07-22T10:00:36;19.57;;;16.17;;
16975;SDS011;8604;48.148;-1.786;2022-07-22T10:03:07;21.77;;;17.20;;
16975;SDS011;8604;48.148;-1.786;2022-07-22T10:05:40;20.43;;;15.47;;
16975;SDS011;8604;48.148;-1.786;2022-07-22T10:08:09;20.13;;;16.17;;
16975;SDS011;8604;48.148;-1.786;2022-07-22T10:10:39;19.77;;;15.07;;
16975;SDS011;8604;48.148;-1.786;2022-07-22T10:13:08;18.27;;;15.67;;
16975;SDS011;8604;48.148;-1.786;2022-07-22T10:15:38;18.50;;;14.93;;
16975;SDS011;8604;48.148;-1.786;2022-07-22T10:18:08;17.83;;;14.90;;
16975;SDS011;8604;48.148;-1.786;2022-07-22T10:20:45;16.30;;;14.60;;
16975;SDS011;8604;48.148;-1.786;2022-07-22T10:23:14;21.10;;;16.13;;
16975;SDS011;8604;48.148;-1.786;2022-07-22T10:25:50;21.30;;;15.57;;
16975;SDS011;8604;48.148;-1.786;2022-07-22T10:28:21;20.03;;;16.07;;
16975;SDS011;8604;48.148;-1.786;2022-07-22T10:30:51;18.97;;;16.73;;
16975;SDS011;8604;48.148;-1.786;2022-07-22T10:33:24;19.97;;;16.70;;
16975;SDS011;8604;48.148;-1.786;2022-07-22T10:35:58;17.70;;;15.30;;
16975;SDS011;8604;48.148;-1.786;2022-07-22T10:38:28;18.20;;;16.20;;
16975;SDS011;8604;48.148;-1.786;2022-07-22T10:40:59;20.30;;;15.83;;
16975;SDS011;8604;48.148;-1.786;2022-07-22T10:43:29;18.53;;;15.73;;
16975;SDS011;8604;48.148;-1.786;2022-07-22T10:46:00;20.03;;;16.47;;
16975;SDS011;8604;48.148;-1.786;2022-07-22T10:51:16;19.80;;;14.23;;
16975;SDS011;8604;48.148;-1.786;2022-07-22T10:53:49;18.70;;;14.13;;
16975;SDS011;8604;48.148;-1.786;2022-07-22T10:56:23;15.93;;;12.87;;
16975;SDS011;8604;48.148;-1.786;2022-07-22T10:58:54;17.17;;;13.30;;
16975;SDS011;8604;48.148;-1.786;2022-07-22T11:01:25;17.13;;;13.67;;
16975;SDS011;8604;48.148;-1.786;2022-07-22T11:04:06;18.47;;;13.23;;
16975;SDS011;8604;48.148;-1.786;2022-07-22T11:06:43;18.20;;;13.03;;
16975;SDS011;8604;48.148;-1.786;2022-07-22T11:09:13;17.43;;;11.03;;
16975;SDS011;8604;48.148;-1.786;2022-07-22T11:11:43;16.27;;;11.83;;
16975;SDS011;8604;48.148;-1.786;2022-07-22T11:14:14;15.73;;;11.87;;
16975;SDS011;8604;48.148;-1.786;2022-07-22T11:16:44;16.40;;;12.67;;
16975;SDS011;8604;48.148;-1.786;2022-07-22T11:19:16;15.33;;;11.70;;
16975;SDS011;8604;48.148;-1.786;2022-07-22T11:21:52;15.77;;;11.70;;
16975;SDS011;8604;48.148;-1.786;2022-07-22T11:24:22;13.57;;;11.13;;
16975;SDS011;8604;48.148;-1.786;2022-07-22T11:26:51;14.70;;;10.50;;
16975;SDS011;8604;48.148;-1.786;2022-07-22T11:29:25;16.57;;;10.53;;
16975;SDS011;8604;48.148;-1.786;2022-07-22T11:31:56;17.67;;;10.67;;
16975;SDS011;8604;48.148;-1.786;2022-07-22T11:34:27;14.53;;;10.33;;
16975;SDS011;8604;48.148;-1.786;2022-07-22T11:36:56;14.13;;;9.63;;
16975;SDS011;8604;48.148;-1.786;2022-07-22T11:39:25;14.80;;;9.10;;
16975;SDS011;8604;48.148;-1.786;2022-07-22T11:41:56;11.77;;;9.37;;
16975;SDS011;8604;48.148;-1.786;2022-07-22T11:44:27;14.53;;;10.03;;
16975;SDS011;8604;48.148;-1.786;2022-07-22T11:46:57;14.87;;;8.37;;
16975;SDS011;8604;48.148;-1.786;2022-07-22T11:49:27;12.50;;;9.27;;
16975;SDS011;8604;48.148;-1.786;2022-07-22T11:51:57;14.67;;;11.17;;
16975;SDS011;8604;48.148;-1.786;2022-07-22T11:54:27;13.60;;;8.53;;
16975;SDS011;8604;48.148;-1.786;2022-07-22T11:56:55;11.63;;;7.23;;
16975;SDS011;8604;48.148;-1.786;2022-07-22T11:59:24;11.23;;;7.30;;
16975;SDS011;8604;48.148;-1.786;2022-07-22T12:01:52;11.80;;;7.07;;
16975;SDS011;8604;48.148;-1.786;2022-07-22T12:04:21;10.57;;;7.50;;
16975;SDS011;8604;48.148;-1.786;2022-07-22T12:06:57;15.37;;;8.30;;
16975;SDS011;8604;48.148;-1.786;2022-07-22T12:09:28;12.70;;;8.77;;
16975;SDS011;8604;48.148;-1.786;2022-07-22T12:12:00;13.03;;;8.07;;
16975;SDS011;8604;48.148;-1.786;2022-07-22T12:14:30;10.83;;;7.97;;
16975;SDS011;8604;48.148;-1.786;2022-07-22T12:17:00;13.10;;;7.80;;
16975;SDS011;8604;48.148;-1.786;2022-07-22T12:19:31;12.37;;;7.90;;
16975;SDS011;8604;48.148;-1.786;2022-07-22T12:22:03;12.93;;;7.20;;
16975;SDS011;8604;48.148;-1.786;2022-07-22T12:24:33;13.47;;;8.23;;
16975;SDS011;8604;48.148;-1.786;2022-07-22T12:27:03;11.87;;;7.80;;
16975;SDS011;8604;48.148;-1.786;2022-07-22T12:29:41;11.63;;;7.00;;
16975;SDS011;8604;48.148;-1.786;2022-07-22T12:32:15;14.57;;;7.20;;
16975;SDS011;8604;48.148;-1.786;2022-07-22T12:34:46;11.40;;;7.47;;
16975;SDS011;8604;48.148;-1.786;2022-07-22T12:37:17;11.87;;;8.13;;
16975;SDS011;8604;48.148;-1.786;2022-07-22T12:39:57;10.73;;;7.20;;
16975;SDS011;8604;48.148;-1.786;2022-07-22T12:42:28;10.40;;;6.80;;
16975;SDS011;8604;48.148;-1.786;2022-07-22T12:45:00;12.37;;;7.10;;
16975;SDS011;8604;48.148;-1.786;2022-07-22T12:47:44;11.93;;;6.90;;
16975;SDS011;8604;48.148;-1.786;2022-07-22T12:50:16;16.90;;;13.00;;
16975;SDS011;8604;48.148;-1.786;2022-07-22T12:52:50;11.90;;;7.07;;
16975;SDS011;8604;48.148;-1.786;2022-07-22T12:55:41;14.77;;;7.47;;
16975;SDS011;8604;48.148;-1.786;2022-07-22T12:58:12;12.23;;;6.33;;
16975;SDS011;8604;48.148;-1.786;2022-07-22T13:00:43;13.03;;;7.60;;
16975;SDS011;8604;48.148;-1.786;2022-07-22T13:03:12;12.87;;;6.60;;
16975;SDS011;8604;48.148;-1.786;2022-07-22T13:05:41;11.53;;;7.00;;
16975;SDS011;8604;48.148;-1.786;2022-07-22T13:08:11;10.07;;;6.17;;
16975;SDS011;8604;48.148;-1.786;2022-07-22T13:10:40;10.10;;;6.83;;
16975;SDS011;8604;48.148;-1.786;2022-07-22T13:13:08;12.20;;;6.70;;
16975;SDS011;8604;48.148;-1.786;2022-07-22T13:15:37;9.27;;;6.13;;
16975;SDS011;8604;48.148;-1.786;2022-07-22T13:18:06;8.40;;;6.00;;
16975;SDS011;8604;48.148;-1.786;2022-07-22T13:20:34;11.53;;;6.60;;
16975;SDS011;8604;48.148;-1.786;2022-07-22T13:23:03;10.67;;;6.27;;
16975;SDS011;8604;48.148;-1.786;2022-07-22T13:25:32;10.67;;;5.93;;
16975;SDS011;8604;48.148;-1.786;2022-07-22T13:28:02;10.60;;;5.97;;
16975;SDS011;8604;48.148;-1.786;2022-07-22T13:30:31;13.07;;;9.63;;
16975;SDS011;8604;48.148;-1.786;2022-07-22T13:32:59;8.87;;;5.73;;
16975;SDS011;8604;48.148;-1.786;2022-07-22T13:35:27;7.77;;;5.00;;
16975;SDS011;8604;48.148;-1.786;2022-07-22T13:37:57;11.63;;;5.27;;
16975;SDS011;8604;48.148;-1.786;2022-07-22T13:40:25;10.10;;;5.23;;
16975;SDS011;8604;48.148;-1.786;2022-07-22T13:42:56;8.90;;;4.87;;
16975;SDS011;8604;48.148;-1.786;2022-07-22T13:45:25;8.80;;;5.17;;
16975;SDS011;8604;48.148;-1.786;2022-07-22T13:47:53;11.10;;;5.67;;
16975;SDS011;8604;48.148;-1.786;2022-07-22T13:50:21;7.70;;;4.73;;
16975;SDS011;8604;48.148;-1.786;2022-07-22T13:52:50;11.37;;;5.40;;
16975;SDS011;8604;48.148;-1.786;2022-07-22T13:55:18;8.20;;;4.47;;
16975;SDS011;8604;48.148;-1.786;2022-07-22T13:57:47;8.97;;;4.90;;
16975;SDS011;8604;48.148;-1.786;2022-07-22T14:00:16;9.00;;;4.23;;
16975;SDS011;8604;48.148;-1.786;2022-07-22T14:02:46;9.63;;;4.70;;
16975;SDS011;8604;48.148;-1.786;2022-07-22T14:05:14;9.00;;;4.33;;
16975;SDS011;8604;48.148;-1.786;2022-07-22T14:07:43;12.03;;;5.00;;
16975;SDS011;8604;48.148;-1.786;2022-07-22T14:10:12;10.10;;;4.60;;
16975;SDS011;8604;48.148;-1.786;2022-07-22T14:12:41;6.70;;;3.80;;
16975;SDS011;8604;48.148;-1.786;2022-07-22T14:15:10;7.30;;;3.93;;
16975;SDS011;8604;48.148;-1.786;2022-07-22T14:17:42;8.43;;;3.90;;
16975;SDS011;8604;48.148;-1.786;2022-07-22T14:20:12;7.40;;;3.83;;
16975;SDS011;8604;48.148;-1.786;2022-07-22T14:22:41;8.33;;;3.90;;
16975;SDS011;8604;48.148;-1.786;2022-07-22T14:25:09;6.00;;;3.63;;
16975;SDS011;8604;48.148;-1.786;2022-07-22T14:27:37;8.20;;;3.80;;
16975;SDS011;8604;48.148;-1.786;2022-07-22T14:30:06;7.97;;;3.57;;
16975;SDS011;8604;48.148;-1.786;2022-07-22T14:32:35;7.07;;;3.60;;
16975;SDS011;8604;48.148;-1.786;2022-07-22T14:35:05;7.13;;;3.20;;
16975;SDS011;8604;48.148;-1.786;2022-07-22T14:37:34;8.00;;;3.67;;
16975;SDS011;8604;48.148;-1.786;2022-07-22T14:40:03;7.47;;;3.30;;
16975;SDS011;8604;48.148;-1.786;2022-07-22T14:42:32;6.27;;;2.90;;
16975;SDS011;8604;48.148;-1.786;2022-07-22T14:45:00;5.53;;;3.20;;
16975;SDS011;8604;48.148;-1.786;2022-07-22T14:47:35;8.20;;;3.57;;
16975;SDS011;8604;48.148;-1.786;2022-07-22T14:50:05;8.70;;;3.40;;
16975;SDS011;8604;48.148;-1.786;2022-07-22T14:52:34;8.93;;;3.40;;
16975;SDS011;8604;48.148;-1.786;2022-07-22T14:55:03;6.80;;;3.33;;
16975;SDS011;8604;48.148;-1.786;2022-07-22T14:57:32;6.80;;;3.40;;
16975;SDS011;8604;48.148;-1.786;2022-07-22T15:00:00;6.30;;;3.40;;
16975;SDS011;8604;48.148;-1.786;2022-07-22T15:02:29;8.03;;;3.40;;